Impacts TAF Board INFO
FOR SITUATIONAL AWARENESS. NOT TO BE USED FOR FLIGHT PLANNING PURPOSES.
IDs:

KIAD - Washington/Dulles In, VA, US

Issued at 2102 UTC 20 Nov 2017
Updated at 2117 UTC 20 Nov 2017
Potential Impact None Slight Moderate High
Time2052Z 20/22Z 20/23Z 21/00Z 21/01Z 21/02Z 21/03Z 21/04Z 21/05Z 21/06Z 21/07Z 21/08Z 21/09Z 21/10Z>>
Type OBS PRVL PRVL PRVL PRVL PRVL PRVL PRVL PRVL PRVL PRVL PRVL PRVL PRVL
VIS 10 >6 >6 >6 >6 >6 >6 >6 >6 >6 >6 >6 >6 >6
CIG -- -- -- -- -- -- -- -- -- -- -- -- -- --
Cover FEW SKC SKC SKC SKC SKC SKC SKC SKC SKC SKC SKC SKC SKC
FltCat VFR VFR VFR VFR VFR VFR VFR VFR VFR VFR VFR VFR VFR VFR
WX -- -- -- -- -- -- -- -- -- -- -- -- -- --
WDir 200 200 200 200 200 200 200 200 200 200 200 200 200 200
WSpd 8 8 8 8 8 8 8 8 8 8 8 8 8 8
WGst -- -- -- -- -- -- -- -- -- -- -- -- -- --

Raw TAF
KIAD 202102Z 2021/2124 20008KT P6SM SKC
  FM211100 20008KT P6SM FEW200 FEW250 WS020/22035KT
  FM211300 20008KT P6SM FEW200 FEW250
  FM211700 20012KT P6SM FEW200 SCT250


Raw METAR
KIAD 202052Z 20008KT 10SM FEW250 10/M05 A3016 RMK AO2 SLP215 T01001050 56005
KIAD 201952Z 21012KT 10SM FEW250 11/M06 A3016 RMK AO2 SLP215 T01061056
KIAD 201852Z 25007KT 10SM FEW250 10/M06 A3017 RMK AO2 SLP217 T01001056

METAR Board
Radar Display
Forecast Discussion

FOR SITUATIONAL AWARENESS. NOT TO BE USED FOR FLIGHT PLANNING PURPOSES.